Time;durP1;ratioP1;P1;durP2;ratioP2;P2;SDS_P1;SDS_P2;PMS_P1;PMS_P2;Temp;Humidity;BMP_temperature;BMP_pressure;BME280_temperature;BME280_humidity;BME280_pressure;Samples;Min_cycle;Max_cycle;Signal;HPM_P1;HPM_P2
2022/04/24 00:00:46;;;;;;;9.95;3.90;;;;;;;10.12;65.83;94970.66;5063603;28;20035;-69
2022/04/24 00:03:12;;;;;;;8.20;3.58;;;;;;;10.14;65.25;94979.31;5064647;28;20029;-70
2022/04/24 00:05:37;;;;;;;6.63;3.63;;;;;;;10.11;65.30;94972.50;5063697;28;20051;-70
2022/04/24 00:08:03;;;;;;;6.50;3.47;;;;;;;10.09;65.10;94973.72;5068457;28;20544;-69
2022/04/24 00:10:28;;;;;;;7.47;3.97;;;;;;;10.06;65.35;94974.09;5067180;28;20544;-69
2022/04/24 00:12:54;;;;;;;6.30;3.58;;;;;;;10.04;65.07;94976.13;5068034;28;20033;-69
2022/04/24 00:15:19;;;;;;;6.28;3.03;;;;;;;9.98;65.35;94981.19;5067403;28;20020;-70
2022/04/24 00:17:44;;;;;;;7.22;3.85;;;;;;;9.92;65.08;94984.59;5067718;28;20040;-69
2022/04/24 00:20:10;;;;;;;8.02;3.60;;;;;;;9.88;65.76;94984.13;5067830;28;20565;-69
2022/04/24 00:22:36;;;;;;;7.53;3.65;;;;;;;9.82;66.18;94978.72;5048907;28;20020;-70
2022/04/24 00:25:01;;;;;;;8.23;3.55;;;;;;;9.87;66.21;94976.28;5067956;28;20137;-70
2022/04/24 00:27:27;;;;;;;7.43;3.95;;;;;;;9.88;65.73;94973.41;5048779;28;20036;-70
2022/04/24 00:29:52;;;;;;;6.85;3.60;;;;;;;9.86;65.63;94977.31;5067863;28;20704;-70
2022/04/24 00:32:17;;;;;;;6.93;3.60;;;;;;;9.77;66.35;94982.75;5066859;28;20031;-69
2022/04/24 00:34:43;;;;;;;6.97;4.05;;;;;;;9.74;66.33;94984.94;5067404;28;20072;-69
2022/04/24 00:37:08;;;;;;;9.40;3.85;;;;;;;9.71;66.30;94977.28;5066580;28;20044;-68
2022/04/24 00:39:34;;;;;;;5.45;3.58;;;;;;;9.68;66.33;94975.81;5066076;28;20051;-68
2022/04/24 00:41:59;;;;;;;8.65;3.83;;;;;;;9.63;66.48;94972.84;5048077;28;20028;-69
2022/04/24 00:44:25;;;;;;;10.77;3.88;;;;;;;9.61;66.53;94980.22;5065675;28;20029;-69
2022/04/24 00:47:24;;;;;;;4.93;3.58;;;;;;;9.61;66.30;94974.88;5066725;28;20028;-70
2022/04/24 00:49:50;;;;;;;9.43;3.75;;;;;;;9.60;66.95;94978.56;5047992;28;20089;-69
2022/04/24 00:52:15;;;;;;;9.52;4.00;;;;;;;9.56;67.17;94978.09;5066202;28;20021;-69
2022/04/24 00:54:42;;;;;;;7.32;3.90;;;;;;;9.57;66.90;94978.94;5048380;28;20013;-70
2022/04/24 00:57:08;;;;;;;6.35;4.22;;;;;;;9.56;67.07;94988.81;5065351;28;20025;-69
2022/04/24 00:59:34;;;;;;;10.13;3.67;;;;;;;9.58;66.59;94980.59;5066685;28;20056;-69
2022/04/24 01:01:59;;;;;;;11.05;4.15;;;;;;;9.50;67.03;94982.34;5065035;28;20119;-69
2022/04/24 01:04:24;;;;;;;11.35;4.82;;;;;;;9.52;67.51;94985.69;5031808;28;20025;-69
2022/04/24 01:06:50;;;;;;;7.22;4.22;;;;;;;9.48;67.44;94984.34;5047126;28;20527;-69
2022/04/24 01:09:19;;;;;;;6.93;4.38;;;;;;;9.42;67.34;94993.13;5048000;28;20036;-68
2022/04/24 01:11:46;;;;;;;8.95;4.32;;;;;;;9.38;65.61;94989.16;5065511;28;20478;-70
2022/04/24 01:14:11;;;;;;;7.22;4.00;;;;;;;9.29;66.39;94999.06;5047392;28;20074;-70
2022/04/24 01:16:37;;;;;;;11.20;4.20;;;;;;;9.23;65.56;94997.13;5065825;28;20024;-70
2022/04/24 01:19:03;;;;;;;7.80;3.50;;;;;;;9.21;65.31;94997.31;5063355;28;20034;-70
2022/04/24 01:21:29;;;;;;;10.20;3.47;;;;;;;9.17;65.39;94996.00;5066193;28;20103;-70
2022/04/24 01:23:54;;;;;;;6.32;3.88;;;;;;;9.12;65.05;94998.38;5064555;28;20031;-70
2022/04/24 01:26:19;;;;;;;7.80;3.80;;;;;;;9.06;65.31;95004.44;5066085;28;20051;-70
2022/04/24 01:28:45;;;;;;;6.18;3.83;;;;;;;9.00;65.90;95006.81;5065056;28;20468;-71
2022/04/24 01:31:10;;;;;;;10.32;4.13;;;;;;;8.98;66.47;95008.00;5065411;28;20436;-69
2022/04/24 01:33:36;;;;;;;10.45;4.18;;;;;;;8.96;66.37;95010.03;5065454;28;20033;-68
2022/04/24 01:36:01;;;;;;;6.72;4.13;;;;;;;8.91;66.81;95013.22;5060073;28;121936;-70
2022/04/24 01:38:29;;;;;;;9.18;4.00;;;;;;;8.91;66.75;95007.88;5065561;28;20044;-70
2022/04/24 01:40:54;;;;;;;8.50;4.22;;;;;;;8.86;66.88;95015.59;5065271;28;20024;-69
2022/04/24 01:43:20;;;;;;;8.10;3.78;;;;;;;8.86;67.35;95016.44;5066833;28;20078;-70
2022/04/24 01:45:45;;;;;;;8.40;3.78;;;;;;;8.82;67.28;95014.31;5065291;28;20110;-70
2022/04/24 01:48:11;;;;;;;5.65;3.47;;;;;;;8.83;67.53;95021.31;5066066;28;20024;-70
2022/04/24 01:50:36;;;;;;;7.28;3.85;;;;;;;8.82;67.64;95014.31;5047976;28;20020;-68
2022/04/24 01:53:02;;;;;;;6.70;3.80;;;;;;;8.79;67.71;95026.16;5065490;28;20032;-69
2022/04/24 01:55:27;;;;;;;6.45;3.75;;;;;;;8.83;67.67;95018.63;5066079;28;20033;-68
2022/04/24 01:57:53;;;;;;;6.97;3.85;;;;;;;8.85;68.11;95013.94;5065165;28;20028;-69
2022/04/24 02:00:18;;;;;;;7.03;3.97;;;;;;;8.89;68.45;95016.09;5065932;28;20411;-70
2022/04/24 02:02:44;;;;;;;9.88;4.43;;;;;;;8.89;68.44;95016.09;5064985;28;20021;-69
2022/04/24 02:05:09;;;;;;;6.55;4.00;;;;;;;8.89;68.41;95009.91;5066107;28;20150;-69
2022/04/24 02:07:34;;;;;;;7.03;3.63;;;;;;;8.88;68.38;95016.25;5064858;28;20362;-68
2022/04/24 02:10:00;;;;;;;8.93;3.72;;;;;;;8.88;68.74;95013.59;5065781;28;20491;-69
2022/04/24 02:12:25;;;;;;;9.10;4.18;;;;;;;8.92;68.54;95019.41;5065337;28;20029;-69
2022/04/24 02:14:51;;;;;;;6.72;3.90;;;;;;;8.88;67.83;95019.75;5064839;28;20032;-69
2022/04/24 02:17:16;;;;;;;8.93;4.22;;;;;;;8.82;68.22;95012.44;5065489;28;20025;-70
2022/04/24 02:19:41;;;;;;;7.55;4.03;;;;;;;8.80;68.31;95021.66;5064901;28;20052;-70
2022/04/24 02:22:07;;;;;;;9.38;4.20;;;;;;;8.68;68.81;95024.72;5065797;28;20398;-70
2022/04/24 02:24:32;;;;;;;14.75;5.03;;;;;;;8.63;68.80;95021.72;5064725;28;20486;-69
2022/04/24 02:26:58;;;;;;;8.48;4.45;;;;;;;8.52;69.16;95023.78;5065793;28;20411;-69
2022/04/24 02:29:23;;;;;;;8.85;4.47;;;;;;;8.56;68.58;95028.81;5064512;28;20554;-69
2022/04/24 02:31:48;;;;;;;8.68;4.20;;;;;;;8.49;67.96;95021.44;5065043;28;20034;-69
2022/04/24 02:34:14;;;;;;;8.45;3.90;;;;;;;8.46;68.13;95029.81;5065212;28;20035;-69
2022/04/24 02:36:39;;;;;;;7.45;3.97;;;;;;;8.46;68.33;95028.97;5064432;28;20044;-69
2022/04/24 02:39:05;;;;;;;7.15;4.03;;;;;;;8.45;69.00;95030.81;5065665;28;20094;-69
2022/04/24 02:41:30;;;;;;;7.57;3.85;;;;;;;8.46;68.56;95028.97;5064150;28;20032;-69
2022/04/24 02:43:55;;;;;;;9.20;3.78;;;;;;;8.40;68.07;95019.78;5065664;28;20410;-69
2022/04/24 02:46:21;;;;;;;8.73;4.25;;;;;;;8.39;68.15;95032.34;5064390;28;20479;-69
2022/04/24 02:48:46;;;;;;;9.93;5.45;;;;;;;8.36;68.51;95032.69;5065332;28;20535;-69
2022/04/24 02:51:12;;;;;;;9.73;4.50;;;;;;;8.33;68.76;95029.53;5064999;28;20384;-70
2022/04/24 02:53:37;;;;;;;11.05;4.88;;;;;;;8.32;68.84;95030.53;5046596;28;20025;-69
2022/04/24 02:56:03;;;;;;;9.65;4.13;;;;;;;8.28;68.87;95036.22;5065054;28;20486;-70
2022/04/24 02:58:28;;;;;;;8.90;4.15;;;;;;;8.33;68.88;95042.88;5063981;28;20032;-70
2022/04/24 03:00:55;;;;;;;10.85;4.75;;;;;;;8.34;69.24;95041.88;5047454;28;20069;-70
2022/04/24 03:03:20;;;;;;;9.73;4.65;;;;;;;8.27;68.91;95039.88;5063892;28;20100;-69
2022/04/24 03:05:49;;;;;;;9.13;4.50;;;;;;;8.27;69.14;95042.56;5065580;28;20108;-69
2022/04/24 03:08:18;;;;;;;10.13;5.18;;;;;;;8.26;69.39;95035.56;5064328;28;20411;-69
2022/04/24 03:10:44;;;;;;;7.65;4.22;;;;;;;8.26;69.82;95042.75;5064612;28;20037;-69
2022/04/24 03:13:10;;;;;;;10.80;4.90;;;;;;;8.26;69.87;95038.25;5064868;28;20032;-69
2022/04/24 03:15:37;;;;;;;7.72;4.65;;;;;;;8.27;69.42;95047.91;5063802;28;20109;-69
2022/04/24 03:18:03;;;;;;;7.00;4.85;;;;;;;8.26;69.41;95045.41;5065116;28;20388;-69
2022/04/24 03:20:28;;;;;;;11.18;4.80;;;;;;;8.21;67.95;95056.63;5063759;28;20506;-70
2022/04/24 03:22:54;;;;;;;10.10;5.28;;;;;;;8.13;68.12;95054.81;5065403;28;20032;-69
2022/04/24 03:25:19;;;;;;;12.23;5.95;;;;;;;8.13;68.42;95053.97;5064483;28;20020;-70
2022/04/24 03:27:44;;;;;;;15.40;8.63;;;;;;;8.12;68.59;95057.66;5064795;28;20024;-69
2022/04/24 03:30:10;;;;;;;13.65;6.47;;;;;;;8.07;67.66;95060.00;5063834;28;20040;-69
2022/04/24 03:32:36;;;;;;;9.25;5.13;;;;;;;7.99;67.68;95058.19;5063886;28;20032;-70
2022/04/24 03:35:03;;;;;;;10.75;5.40;;;;;;;7.93;68.59;95046.34;5064771;28;20396;-69
2022/04/24 03:37:28;;;;;;;11.65;5.68;;;;;;;7.94;68.94;95049.84;5045721;28;20045;-69
2022/04/24 03:39:54;;;;;;;13.48;6.32;;;;;;;7.95;68.73;95051.53;5065166;28;20035;-69
2022/04/24 03:42:19;;;;;;;13.60;7.15;;;;;;;7.88;69.56;95048.69;5066702;28;20025;-70
2022/04/24 03:44:45;;;;;;;16.40;7.38;;;;;;;7.90;70.17;95060.00;5068725;28;20051;-69
2022/04/24 03:47:10;;;;;;;17.13;6.82;;;;;;;7.96;69.92;95059.34;5068026;28;20379;-69
2022/04/24 03:49:36;;;;;;;11.20;6.18;;;;;;;7.97;69.82;95062.84;5068246;28;20020;-69
2022/04/24 03:52:01;;;;;;;9.05;5.30;;;;;;;7.98;68.67;95062.66;5068286;28;20480;-70
2022/04/24 03:54:27;;;;;;;9.93;5.18;;;;;;;8.01;68.65;95062.34;5067699;28;20043;-70
2022/04/24 03:56:52;;;;;;;8.73;4.50;;;;;;;8.03;68.53;95071.00;5068326;28;20406;-70
2022/04/24 03:59:17;;;;;;;7.95;4.72;;;;;;;8.05;68.41;95062.84;5067299;28;20510;-69
2022/04/24 04:01:43;;;;;;;10.13;5.05;;;;;;;8.10;68.44;95062.31;5068483;28;20514;-69
2022/04/24 04:04:08;;;;;;;7.10;4.70;;;;;;;8.14;68.11;95069.81;5067428;28;20021;-69
2022/04/24 04:06:34;;;;;;;14.13;4.80;;;;;;;8.19;68.26;95069.31;5068047;28;20398;-70
2022/04/24 04:08:59;;;;;;;8.77;4.82;;;;;;;8.18;68.25;95064.97;5067874;28;20028;-70
2022/04/24 04:11:26;;;;;;;11.02;4.43;;;;;;;8.18;68.62;95075.66;5067761;28;20098;-69
2022/04/24 04:13:52;;;;;;;7.32;4.40;;;;;;;8.18;68.75;95073.00;5067826;28;20479;-69
2022/04/24 04:16:17;;;;;;;7.90;4.82;;;;;;;8.16;68.49;95080.31;5067078;28;20082;-69
2022/04/24 04:18:42;;;;;;;8.23;4.82;;;;;;;8.16;68.87;95075.81;5067879;28;20040;-70
2022/04/24 04:21:08;;;;;;;8.65;4.93;;;;;;;8.16;68.67;95083.00;5067139;28;20040;-70
2022/04/24 04:23:33;;;;;;;7.10;4.78;;;;;;;8.25;68.59;95083.81;5068640;28;20489;-69
2022/04/24 04:25:59;;;;;;;8.30;4.30;;;;;;;8.28;68.37;95089.69;5067053;28;20108;-69
2022/04/24 04:28:24;;;;;;;10.02;4.50;;;;;;;8.46;68.29;95093.13;5067825;28;20036;-70
2022/04/24 04:30:50;;;;;;;7.05;4.55;;;;;;;8.64;67.87;95087.59;5067111;28;20028;-69
2022/04/24 04:33:15;;;;;;;8.75;4.55;;;;;;;8.85;67.78;95096.84;5066911;28;20032;-68
2022/04/24 04:35:41;;;;;;;8.38;4.47;;;;;;;9.08;66.78;95094.22;5067493;28;20082;-69
2022/04/24 04:38:06;;;;;;;10.80;4.38;;;;;;;9.25;66.16;95100.28;5066714;28;20078;-70
2022/04/24 04:40:31;;;;;;;9.57;4.75;;;;;;;9.40;65.94;95097.69;5067821;28;20074;-70
2022/04/24 04:42:57;;;;;;;13.88;4.70;;;;;;;9.66;65.35;95106.38;5066972;28;20020;-70
2022/04/24 04:45:24;;;;;;;8.80;4.60;;;;;;;9.83;64.40;95100.88;5067757;28;20183;-70
2022/04/24 04:47:50;;;;;;;6.72;3.95;;;;;;;9.97;63.31;95101.94;5067323;28;20450;-70
2022/04/24 04:50:15;;;;;;;9.15;3.80;;;;;;;10.04;62.33;95105.56;5066926;28;20506;-69
2022/04/24 04:52:41;;;;;;;5.40;3.80;;;;;;;10.21;61.51;95102.69;5067061;28;20479;-69
2022/04/24 04:55:07;;;;;;;8.18;4.72;;;;;;;10.36;61.26;95100.06;5066255;28;20021;-69
2022/04/24 04:57:32;;;;;;;7.80;5.00;;;;;;;10.42;61.78;95104.69;5067427;28;20107;-69
2022/04/24 04:59:58;;;;;;;11.63;5.22;;;;;;;10.56;60.78;95105.72;5066060;28;20077;-68
2022/04/24 05:02:23;;;;;;;7.82;4.60;;;;;;;10.72;60.66;95104.69;5067552;28;20025;-69
2022/04/24 05:04:49;;;;;;;8.65;4.55;;;;;;;10.92;60.36;95103.28;5066522;28;20012;-70
2022/04/24 05:07:14;;;;;;;8.63;4.82;;;;;;;11.08;59.92;95111.13;5048211;28;20052;-69
2022/04/24 05:09:40;;;;;;;9.98;4.68;;;;;;;11.33;59.27;95100.03;5066810;28;20544;-69
2022/04/24 05:12:07;;;;;;;9.13;4.50;;;;;;;11.61;58.57;95099.31;5066154;28;20021;-68
2022/04/24 05:14:32;;;;;;;10.30;5.13;;;;;;;11.74;58.34;95101.28;5067004;28;20040;-70
2022/04/24 05:16:58;;;;;;;11.52;4.55;;;;;;;11.96;57.84;95100.44;5065747;28;20032;-69
2022/04/24 05:19:24;;;;;;;9.55;5.20;;;;;;;12.14;57.53;95105.34;5067360;28;20499;-69
2022/04/24 05:21:49;;;;;;;7.30;4.60;;;;;;;12.36;56.86;95108.03;5066002;28;20031;-69
2022/04/24 05:24:15;;;;;;;8.15;5.20;;;;;;;12.58;56.13;95100.72;5066917;28;20036;-70
2022/04/24 05:26:40;;;;;;;9.23;4.80;;;;;;;12.70;55.96;95106.34;5066571;28;20029;-70
2022/04/24 05:29:06;;;;;;;10.63;5.10;;;;;;;12.79;55.88;95100.81;5066292;28;20439;-71
2022/04/24 05:31:31;;;;;;;9.88;4.78;;;;;;;12.98;55.75;95100.06;5066845;28;20021;-70
2022/04/24 05:33:57;;;;;;;10.98;5.13;;;;;;;13.22;56.14;95108.66;5065887;28;20499;-70
2022/04/24 05:36:22;;;;;;;6.45;4.70;;;;;;;13.41;56.66;95100.03;5066494;28;20419;-70
2022/04/24 05:38:48;;;;;;;9.00;4.70;;;;;;;13.54;56.33;95093.88;5065752;28;20021;-70
2022/04/24 05:41:13;;;;;;;7.25;4.60;;;;;;;13.74;55.97;95101.13;5066731;28;20036;-70
2022/04/24 05:43:39;;;;;;;7.32;3.88;;;;;;;13.59;56.01;95110.22;5065785;28;20020;-69
2022/04/24 05:46:04;;;;;;;7.15;3.78;;;;;;;13.75;55.34;95106.31;5066249;28;20032;-69
2022/04/24 05:48:30;;;;;;;10.38;4.00;;;;;;;13.88;55.10;95108.22;5064727;28;20518;-70
2022/04/24 05:50:55;;;;;;;7.60;4.07;;;;;;;13.93;55.19;95097.66;5065652;28;20490;-70
2022/04/24 05:53:21;;;;;;;6.70;3.80;;;;;;;14.03;55.20;95109.88;5048425;28;20086;-71
2022/04/24 05:55:46;;;;;;;8.00;3.75;;;;;;;14.36;55.46;95100.13;5065384;28;20056;-69
2022/04/24 05:58:12;;;;;;;7.43;3.78;;;;;;;14.48;54.41;95105.72;5066166;28;20016;-70
2022/04/24 06:00:38;;;;;;;7.90;3.40;;;;;;;14.60;53.97;95104.03;5065225;28;20028;-70
2022/04/24 06:03:04;;;;;;;11.75;3.47;;;;;;;14.80;53.16;95101.31;5066284;28;20115;-70
2022/04/24 06:05:29;;;;;;;6.30;3.50;;;;;;;14.70;54.51;95092.81;5064558;28;20498;-70
2022/04/24 06:07:55;;;;;;;6.97;3.47;;;;;;;14.89;53.97;95088.44;5065691;28;20032;-69
2022/04/24 06:10:20;;;;;;;9.27;3.53;;;;;;;15.10;53.57;95097.28;5065594;28;20350;-70
2022/04/24 06:12:53;;;;;;;6.88;3.67;;;;;;;15.17;53.05;95092.69;5065309;28;20029;-69
2022/04/24 06:15:21;;;;;;;;;;;;;;;15.21;53.08;95084.97;5066230;28;20028;-69
2022/04/24 06:17:50;;;;;;;5.57;3.53;;;;;;;15.23;52.75;95084.75;5064697;28;20442;-70
2022/04/24 06:20:16;;;;;;;6.82;3.55;;;;;;;15.39;52.22;95086.97;5065723;28;20521;-70
2022/04/24 06:22:45;;;;;;;6.55;3.78;;;;;;;15.52;51.56;95082.53;5064773;28;20240;-70
2022/04/24 06:25:17;;;;;;;11.85;4.95;;;;;;;15.67;51.87;95085.75;5065427;28;20410;-71
2022/04/24 06:27:46;;;;;;;6.95;3.92;;;;;;;15.86;51.56;95077.75;5065567;28;20019;-69
2022/04/24 06:30:14;;;;;;;6.95;4.43;;;;;;;15.97;50.42;95078.91;5047265;28;20036;-68
2022/04/24 06:32:41;;;;;;;9.18;4.13;;;;;;;16.04;50.10;95084.31;5048027;28;20024;-70
2022/04/24 06:35:09;;;;;;;7.07;4.22;;;;;;;16.16;50.59;95076.28;5064043;28;20478;-70
2022/04/24 06:37:37;;;;;;;9.00;4.50;;;;;;;16.18;49.85;95079.59;5065312;28;20044;-70
2022/04/24 06:40:05;;;;;;;9.23;4.53;;;;;;;16.16;50.16;95082.53;5064529;28;20077;-71
2022/04/24 06:42:31;;;;;;;8.27;4.65;;;;;;;16.30;50.84;95077.00;5064812;28;20513;-69
2022/04/24 06:44:56;;;;;;;8.35;4.00;;;;;;;16.44;50.01;95077.72;5065056;28;20021;-70
2022/04/24 06:47:22;;;;;;;8.32;4.38;;;;;;;16.50;50.80;95081.41;5064062;28;20102;-70
2022/04/24 06:49:47;;;;;;;10.50;4.28;;;;;;;16.60;50.52;95086.31;5065106;28;20400;-70
2022/04/24 06:52:13;;;;;;;9.52;4.35;;;;;;;16.71;48.96;95082.84;5064219;28;20028;-69
2022/04/24 06:54:38;;;;;;;7.57;4.43;;;;;;;16.78;47.96;95082.78;5030507;28;20035;-70
2022/04/24 06:57:04;;;;;;;11.00;4.53;;;;;;;16.90;48.05;95072.03;5064079;28;20146;-70
2022/04/24 06:59:30;;;;;;;9.88;4.18;;;;;;;16.88;48.98;95072.25;5065181;28;20496;-71
2022/04/24 07:01:55;;;;;;;8.48;4.20;;;;;;;17.00;49.21;95068.78;5064529;28;20056;-69
2022/04/24 07:04:20;;;;;;;10.02;4.32;;;;;;;16.99;47.70;95064.44;5064461;28;20403;-70
2022/04/24 07:06:46;;;;;;;8.05;4.28;;;;;;;16.98;47.68;95062.75;5046739;28;20501;-70
2022/04/24 07:09:11;;;;;;;7.28;3.83;;;;;;;17.11;48.22;95054.50;5064031;28;20029;-71
2022/04/24 07:11:37;;;;;;;7.75;4.03;;;;;;;17.29;48.35;95052.84;5065131;28;20027;-69
2022/04/24 07:14:02;;;;;;;15.85;3.92;;;;;;;17.46;48.16;95057.63;5064082;28;20033;-69
2022/04/24 07:16:28;;;;;;;7.38;4.22;;;;;;;17.56;47.77;95057.88;5068525;28;20423;-70
2022/04/24 07:18:53;;;;;;;7.80;3.63;;;;;;;17.64;48.54;95051.28;5068408;28;20024;-70
2022/04/24 07:21:19;;;;;;;6.50;3.72;;;;;;;17.52;48.12;95048.56;5069318;28;20031;-69
2022/04/24 07:23:44;;;;;;;8.52;3.72;;;;;;;17.59;46.93;95043.84;5068640;28;20023;-70
2022/04/24 07:26:09;;;;;;;5.75;3.42;;;;;;;17.60;47.13;95042.81;5068246;28;20021;-69
2022/04/24 07:28:36;;;;;;;8.80;4.10;;;;;;;17.70;46.94;95038.72;5050720;28;20020;-70
2022/04/24 07:31:01;;;;;;;11.20;4.35;;;;;;;17.71;46.86;95034.94;5067709;28;20410;-68
2022/04/24 07:33:27;;;;;;;7.30;4.10;;;;;;;17.50;47.47;95034.41;5069051;28;20057;-70
2022/04/24 07:35:52;;;;;;;10.30;4.60;;;;;;;17.64;47.59;95029.59;5067121;28;20036;-70
2022/04/24 07:38:17;;;;;;;7.10;4.03;;;;;;;17.67;46.98;95035.41;5068713;28;20045;-70
2022/04/24 07:40:43;;;;;;;7.70;4.18;;;;;;;17.44;48.11;95029.91;5067909;28;20124;-70
2022/04/24 07:43:10;;;;;;;7.15;4.43;;;;;;;17.28;48.00;95030.31;5068474;28;20033;-70
2022/04/24 07:45:47;;;;;;;17.33;4.63;;;;;;;17.50;47.50;95020.84;5068186;28;20036;-72
2022/04/24 07:48:13;;;;;;;10.43;4.40;;;;;;;17.71;47.49;95032.22;5067656;28;20111;-70
2022/04/24 07:50:39;;;;;;;7.85;3.92;;;;;;;17.96;47.35;95025.81;5068415;28;20148;-70
2022/04/24 07:53:05;;;;;;;8.80;3.85;;;;;;;18.08;46.62;95029.34;5067612;28;20110;-71
2022/04/24 07:55:31;;;;;;;9.10;4.10;;;;;;;18.28;46.87;95033.63;5068720;28;20033;-69
2022/04/24 07:58:02;;;;;;;9.63;3.97;;;;;;;18.46;45.53;95029.16;5067450;28;20032;-71
2022/04/24 08:00:29;;;;;;;10.47;3.53;;;;;;;18.56;44.23;95028.53;5068489;28;20376;-69
2022/04/24 08:02:57;;;;;;;5.68;3.03;;;;;;;18.58;44.28;95016.38;5068103;28;20021;-69
2022/04/24 08:05:26;;;;;;;8.52;3.10;;;;;;;18.74;44.79;95008.56;5067306;28;20035;-68
2022/04/24 08:07:53;;;;;;;5.68;2.90;;;;;;;18.81;44.18;95013.88;5068175;28;20039;-69
2022/04/24 08:10:19;;;;;;;7.55;3.22;;;;;;;18.90;44.38;95009.69;5066978;28;20024;-71
2022/04/24 08:12:44;;;;;;;8.13;2.72;;;;;;;18.93;43.72;95011.09;5068121;28;20574;-70
2022/04/24 08:15:10;;;;;;;4.80;2.30;;;;;;;19.04;42.18;94999.38;5067277;28;20024;-69
2022/04/24 08:17:35;;;;;;;7.07;2.88;;;;;;;19.10;43.38;94995.72;5067902;28;20016;-70
2022/04/24 08:20:02;;;;;;;5.07;2.47;;;;;;;19.27;43.39;94993.06;5067491;28;20035;-71
2022/04/24 08:22:36;;;;;;;7.03;2.90;;;;;;;19.42;42.31;94986.28;5067141;28;20629;-71
2022/04/24 08:25:01;;;;;;;11.07;9.70;;;;;;;19.45;42.65;94980.34;5067862;28;20032;-72
2022/04/24 08:27:27;;;;;;;10.18;9.43;;;;;;;19.61;42.06;94977.88;5066271;28;20025;-72
2022/04/24 08:29:52;;;;;;;5.95;2.60;;;;;;;19.70;41.03;94978.31;5067820;28;20024;-70
2022/04/24 08:32:20;;;;;;;6.07;2.88;;;;;;;19.67;41.43;94984.25;5067040;28;20021;-71
2022/04/24 08:34:45;;;;;;;10.00;2.58;;;;;;;19.75;41.10;94972.94;5067701;28;20494;-71
2022/04/24 08:37:11;;;;;;;9.27;2.47;;;;;;;19.83;41.31;94964.38;5066795;28;20047;-72
2022/04/24 08:39:36;;;;;;;5.00;2.13;;;;;;;19.86;40.99;94969.31;5067266;28;20035;-70
2022/04/24 08:42:02;;;;;;;4.78;2.10;;;;;;;19.89;40.97;94974.25;5067377;28;20032;-72
2022/04/24 08:44:29;;;;;;;4.47;1.92;;;;;;;20.01;39.97;94976.06;5032314;28;20032;-73
2022/04/24 08:46:54;;;;;;;4.78;1.80;;;;;;;20.01;40.76;94976.06;5049744;28;20047;-71
2022/04/24 08:49:20;;;;;;;5.05;1.77;;;;;;;19.94;40.01;94970.78;5032161;28;20020;-73
2022/04/24 08:51:45;;;;;;;5.03;2.03;;;;;;;19.97;40.32;94967.59;5049617;28;20041;-74
2022/04/24 08:54:12;;;;;;;5.57;2.05;;;;;;;20.06;40.49;94962.56;5032033;28;20595;-72
2022/04/24 08:56:37;;;;;;;3.42;1.90;;;;;;;20.10;40.75;94957.47;5048950;28;20946;-68
2022/04/24 08:59:03;;;;;;;5.22;1.65;;;;;;;20.16;40.25;94950.19;5066935;28;20025;-70
2022/04/24 09:01:31;;;;;;;5.90;2.38;;;;;;;20.25;40.84;94946.78;5066700;28;20055;-72
2022/04/24 09:03:57;;;;;;;7.63;1.90;;;;;;;20.24;40.32;94942.44;5066721;28;20479;-70
2022/04/24 09:06:22;;;;;;;3.70;2.20;;;;;;;20.35;41.64;94943.41;5066163;28;20475;-71
2022/04/24 09:08:48;;;;;;;5.03;2.17;;;;;;;20.45;41.48;94947.31;5066920;28;20062;-71
2022/04/24 09:11:13;;;;;;;4.10;1.50;;;;;;;20.57;39.44;94937.13;5064565;28;20205;-70
2022/04/24 09:16:36;;;;;;;5.03;1.38;;;;;;;20.38;39.56;94934.72;5066731;28;20480;-71
2022/04/24 09:19:23;;;;;;;5.47;1.55;;;;;;;20.52;39.75;94941.69;5065790;28;20032;-72
2022/04/24 09:22:09;;;;;;;3.17;1.48;;;;;;;20.63;37.40;94927.94;5067059;28;20433;-71
2022/04/24 09:24:55;;;;;;;3.58;1.38;;;;;;;20.72;38.35;94932.94;5066536;28;20041;-70
2022/04/24 09:27:41;;;;;;;6.10;1.30;;;;;;;20.81;37.71;94936.06;5065763;28;20503;-72
2022/04/24 09:30:09;;;;;;;5.05;1.40;;;;;;;20.83;37.73;94929.28;5048384;28;20067;-73
2022/04/24 09:32:48;;;;;;;4.35;1.38;;;;;;;20.74;36.46;94917.19;5065844;28;20036;-70
2022/04/24 09:35:30;;;;;;;4.45;1.20;;;;;;;20.66;37.21;94918.47;5049208;28;20029;-70
2022/04/24 09:38:08;;;;;;;3.60;1.58;;;;;;;20.85;38.02;94908.06;5066041;28;20037;-71
2022/04/24 09:40:44;;;;;;;3.08;1.30;;;;;;;20.92;38.35;94901.59;5065520;28;20032;-72
2022/04/24 09:43:10;;;;;;;6.55;1.48;;;;;;;20.98;37.70;94900.56;5066820;28;20074;-71
2022/04/24 09:45:37;;;;;;;4.65;1.30;;;;;;;20.99;37.81;94903.03;5065594;28;20462;-71
2022/04/24 09:48:13;;;;;;;4.05;1.55;;;;;;;21.15;37.45;94895.00;5048878;28;20028;-74
2022/04/24 09:50:38;;;;;;;3.75;1.25;;;;;;;21.24;36.43;94895.38;5065808;28;20040;-72
2022/04/24 09:53:04;;;;;;;2.58;1.10;;;;;;;21.11;36.83;94894.72;5065737;28;20036;-70
2022/04/24 09:55:29;;;;;;;4.13;1.38;;;;;;;21.08;36.72;94873.44;5048087;28;20024;-72
2022/04/24 09:57:55;;;;;;;7.32;1.30;;;;;;;21.05;37.62;94878.56;5065240;28;20431;-72
2022/04/24 10:00:21;;;;;;;6.07;1.40;;;;;;;21.16;37.04;94874.03;5066380;28;20024;-71
2022/04/24 10:02:49;;;;;;;13.45;12.63;;;;;;;21.29;37.65;94870.06;5064882;28;20495;-70
2022/04/24 10:05:14;;;;;;;6.70;1.45;;;;;;;21.19;34.89;94862.59;5048769;28;20394;-70
2022/04/24 10:07:40;;;;;;;6.13;1.30;;;;;;;21.18;36.17;94861.81;5065664;28;20552;-72
2022/04/24 10:10:07;;;;;;;5.40;1.42;;;;;;;21.26;35.56;94856.94;5048141;28;20097;-71
2022/04/24 10:12:33;;;;;;;5.10;1.27;;;;;;;21.32;37.13;94848.56;5065580;28;20035;-70
2022/04/24 10:15:06;;;;;;;3.75;1.25;;;;;;;21.36;37.76;94849.66;5047326;28;20025;-71
2022/04/24 10:17:44;;;;;;;3.38;1.40;;;;;;;21.46;37.92;94843.47;5066215;28;20029;-71
2022/04/24 10:20:30;;;;;;;2.83;1.27;;;;;;;21.52;35.92;94838.91;5065143;28;20079;-70
2022/04/24 10:22:55;;;;;;;5.47;1.30;;;;;;;21.64;36.17;94835.13;5049730;28;20021;-75
2022/04/24 10:25:37;;;;;;;6.82;1.52;;;;;;;21.61;36.58;94841.94;5065167;28;20035;-71
2022/04/24 10:28:19;;;;;;;4.65;1.35;;;;;;;21.62;34.63;94838.13;5064828;28;20024;-73
2022/04/24 10:30:57;;;;;;;6.50;1.65;;;;;;;21.58;35.16;94837.84;5048332;28;20112;-71
2022/04/24 10:33:23;;;;;;;4.50;1.40;;;;;;;21.66;37.21;94838.44;5064759;28;20020;-71
2022/04/24 10:35:53;;;;;;;6.00;1.50;;;;;;;21.70;36.68;94840.38;5065626;28;20032;-71
2022/04/24 10:38:22;;;;;;;5.57;1.58;;;;;;;21.66;36.88;94831.06;5065242;28;20124;-70
2022/04/24 10:40:56;;;;;;;5.93;1.70;;;;;;;21.68;36.38;94836.28;5064868;28;20540;-71
2022/04/24 10:43:23;;;;;;;6.22;1.63;;;;;;;21.67;36.53;94829.97;5065521;28;20036;-72
2022/04/24 10:45:48;;;;;;;5.32;1.42;;;;;;;21.73;35.47;94825.41;5064775;28;20040;-71
2022/04/24 10:48:14;;;;;;;5.93;1.60;;;;;;;21.76;34.18;94822.13;5066075;28;20402;-71
2022/04/24 10:50:47;;;;;;;3.80;1.70;;;;;;;21.90;36.07;94811.59;5064046;28;20079;-71
2022/04/24 10:53:12;;;;;;;7.32;1.55;;;;;;;22.06;34.36;94820.69;5065298;28;20025;-72
2022/04/24 10:55:38;;;;;;;5.55;1.50;;;;;;;22.11;34.25;94814.44;5064873;28;20025;-71
2022/04/24 10:58:05;;;;;;;5.82;1.60;;;;;;;22.27;36.34;94823.50;5064593;28;20077;-70
2022/04/24 11:00:34;;;;;;;6.00;1.40;;;;;;;22.31;34.85;94823.81;5065278;28;20522;-71
2022/04/24 11:03:13;;;;;;;3.22;1.25;;;;;;;22.31;33.55;94810.97;5064192;28;20116;-69
2022/04/24 11:05:39;;;;;;;7.05;1.70;;;;;;;22.37;33.86;94805.53;5065117;28;20036;-70
2022/04/24 11:08:06;;;;;;;2.78;1.30;;;;;;;22.42;34.68;94800.91;5064485;28;20043;-70
2022/04/24 11:10:41;;;;;;;6.05;1.60;;;;;;;22.47;33.44;94813.78;5064586;28;20166;-70
2022/04/24 11:13:11;;;;;;;6.05;1.70;;;;;;;22.55;34.30;94805.06;5064978;28;20059;-71
2022/04/24 11:15:42;;;;;;;4.13;1.73;;;;;;;22.61;33.53;94794.97;5063998;28;20035;-72
2022/04/24 11:18:19;;;;;;;5.00;1.55;;;;;;;22.54;33.32;94797.94;5047989;28;20025;-71
2022/04/24 11:20:58;;;;;;;4.65;1.65;;;;;;;22.63;34.54;94791.97;5064344;28;20176;-72
2022/04/24 11:23:31;;;;;;;7.72;1.52;;;;;;;22.70;32.20;94790.63;5048231;28;20666;-70
2022/04/24 11:25:57;;;;;;;3.85;1.40;;;;;;;22.70;33.39;94785.16;5064740;28;20046;-72
2022/04/24 11:28:39;;;;;;;4.30;1.33;;;;;;;22.84;32.77;94771.78;5064275;28;20028;-71
2022/04/24 11:31:08;;;;;;;7.25;2.13;;;;;;;23.02;34.47;94766.88;5065284;28;20021;-70
2022/04/24 11:33:35;;;;;;;8.00;2.10;;;;;;;23.02;31.67;94764.13;5064020;28;20063;-72
2022/04/24 11:36:04;;;;;;;7.20;1.80;;;;;;;23.12;32.92;94762.50;5065112;28;20024;-69
2022/04/24 11:38:30;;;;;;;5.95;1.88;;;;;;;23.22;32.69;94767.97;5064118;28;20048;-70